createdAt,value
2019-05-18T00:01:30.080Z,10.60
2019-05-18T00:03:58.527Z,10.60
2019-05-18T00:06:27.241Z,10.50
2019-05-18T00:08:55.709Z,10.50
2019-05-18T00:11:24.247Z,10.40
2019-05-18T00:13:52.838Z,10.40
2019-05-18T00:16:21.340Z,10.40
2019-05-18T00:18:49.787Z,10.40
2019-05-18T00:21:18.423Z,10.30
2019-05-18T00:23:46.860Z,10.30
2019-05-18T00:26:15.331Z,10.40
2019-05-18T00:28:44.016Z,10.50
2019-05-18T00:31:12.582Z,10.50
2019-05-18T00:33:41.024Z,10.50
2019-05-18T00:36:09.706Z,10.60
2019-05-18T00:38:38.134Z,10.60
2019-05-18T00:41:06.711Z,10.50
2019-05-18T00:43:35.502Z,10.50
2019-05-18T00:46:04.976Z,10.50
2019-05-18T00:48:33.522Z,10.50
2019-05-18T00:51:02.268Z,10.50
2019-05-18T00:53:33.442Z,10.60
2019-05-18T00:56:01.881Z,10.60
2019-05-18T00:58:31.018Z,10.60
2019-05-18T01:00:59.544Z,10.60
2019-05-18T01:03:28.048Z,10.60
2019-05-18T01:05:56.758Z,10.70
2019-05-18T01:08:25.209Z,10.70
2019-05-18T01:10:53.606Z,10.80
2019-05-18T01:13:22.224Z,10.90
2019-05-18T01:15:50.664Z,10.80
2019-05-18T01:18:19.182Z,10.80
2019-05-18T01:20:48.017Z,10.90
2019-05-18T01:23:16.461Z,11.00
2019-05-18T01:25:44.966Z,11.10
2019-05-18T01:28:13.782Z,11.20
2019-05-18T01:30:42.281Z,11.30
2019-05-18T01:33:10.722Z,11.40
2019-05-18T01:35:39.458Z,11.50
2019-05-18T01:38:07.942Z,11.50
2019-05-18T01:40:36.365Z,11.40
2019-05-18T01:43:05.092Z,11.40
2019-05-18T01:45:33.878Z,11.40
2019-05-18T01:48:13.457Z,11.50
2019-05-18T01:50:32.903Z,11.40
2019-05-18T01:53:01.345Z,11.50
2019-05-18T01:55:29.802Z,11.50
2019-05-18T01:57:58.563Z,11.50
2019-05-18T02:00:27.142Z,11.50
2019-05-18T02:02:55.642Z,11.50
2019-05-18T02:05:24.618Z,11.50
2019-05-18T02:07:53.129Z,11.50
2019-05-18T02:10:21.614Z,11.60
2019-05-18T02:12:50.288Z,11.60
2019-05-18T02:15:19.361Z,11.60
2019-05-18T02:17:47.806Z,11.70
2019-05-18T02:20:17.026Z,11.70
2019-05-18T02:22:45.455Z,11.70
2019-05-18T02:25:14.114Z,11.70
2019-05-18T02:27:43.386Z,11.80
2019-05-18T02:30:16.994Z,11.80
2019-05-18T02:32:42.704Z,11.80
2019-05-18T02:35:11.711Z,11.90
2019-05-18T02:37:40.267Z,11.80
2019-05-18T02:40:09.102Z,11.80
2019-05-18T02:42:37.983Z,11.80
2019-05-18T02:45:08.265Z,11.80
2019-05-18T02:47:37.071Z,11.80
2019-05-18T02:50:07.713Z,11.70
2019-05-18T02:52:36.234Z,11.70
2019-05-18T02:55:06.721Z,11.60
2019-05-18T02:57:35.525Z,11.70
2019-05-18T03:00:07.315Z,11.70
2019-05-18T03:02:36.021Z,11.60
2019-05-18T03:05:09.083Z,11.50
2019-05-18T03:07:37.778Z,11.40
2019-05-18T03:10:07.372Z,11.30
2019-05-18T03:12:36.017Z,11.30
2019-05-18T03:15:06.974Z,11.20
2019-05-18T03:17:35.768Z,11.20
2019-05-18T03:20:25.345Z,11.10
2019-05-18T03:22:53.864Z,11.10
2019-05-18T03:25:22.339Z,11.00
2019-05-18T03:27:51.831Z,10.90
2019-05-18T03:30:20.336Z,10.90
2019-05-18T03:32:48.875Z,10.80
2019-05-18T03:35:18.224Z,10.70
2019-05-18T03:37:46.728Z,10.70
2019-05-18T03:40:15.580Z,10.70
2019-05-18T03:42:44.109Z,10.70
2019-05-18T03:45:12.777Z,10.60
2019-05-18T03:47:41.194Z,10.60
2019-05-18T03:50:11.119Z,10.60
2019-05-18T03:52:39.572Z,10.60
2019-05-18T03:55:08.319Z,10.60
2019-05-18T03:57:50.166Z,10.60
2019-05-18T04:00:20.010Z,10.60
2019-05-18T04:02:48.681Z,10.70
2019-05-18T04:05:17.569Z,10.70
2019-05-18T04:07:45.980Z,10.80
2019-05-18T04:10:16.036Z,10.90
2019-05-18T04:12:44.669Z,11.10
2019-05-18T04:15:13.504Z,11.10
2019-05-18T04:17:41.930Z,11.20
2019-05-18T04:20:10.986Z,11.30
2019-05-18T04:22:39.690Z,11.40
2019-05-18T04:25:08.248Z,11.50
2019-05-18T04:27:36.891Z,11.60
2019-05-18T04:30:08.204Z,11.70
2019-05-18T04:32:36.627Z,11.80
2019-05-18T04:35:07.263Z,11.80
2019-05-18T04:37:36.104Z,11.90
2019-05-18T04:40:06.263Z,11.90
2019-05-18T04:42:35.164Z,11.90
2019-05-18T04:45:05.170Z,12.00
2019-05-18T04:47:33.581Z,12.00
2019-05-18T04:50:05.768Z,12.10
2019-05-18T04:52:33.684Z,12.20
2019-05-18T04:55:02.109Z,12.20
2019-05-18T04:57:32.395Z,12.10
2019-05-18T05:00:00.927Z,12.20
2019-05-18T05:02:29.422Z,12.20
2019-05-18T05:04:58.077Z,12.20
2019-05-18T05:07:26.490Z,12.20
2019-05-18T05:09:54.940Z,12.20
2019-05-18T05:12:23.690Z,12.30
2019-05-18T05:14:52.117Z,12.30
2019-05-18T05:17:20.654Z,12.30
2019-05-18T05:19:49.244Z,12.30
2019-05-18T05:22:17.759Z,12.40
2019-05-18T05:24:46.278Z,12.40
2019-05-18T05:27:15.095Z,12.40
2019-05-18T05:29:43.507Z,12.40
2019-05-18T05:32:11.952Z,12.40
2019-05-18T05:34:40.674Z,12.40
2019-05-18T05:37:09.172Z,12.40
2019-05-18T05:39:37.998Z,12.40
2019-05-18T05:42:06.804Z,12.50
2019-05-18T05:44:35.302Z,12.50
2019-05-18T05:47:03.777Z,12.60
2019-05-18T05:49:32.663Z,12.50
2019-05-18T05:52:01.128Z,12.50
2019-05-18T05:54:29.567Z,12.60
2019-05-18T05:56:58.309Z,12.70
2019-05-18T05:59:26.748Z,12.70
2019-05-18T06:01:55.413Z,12.80
2019-05-18T06:04:24.104Z,12.80
2019-05-18T06:06:52.552Z,12.90
2019-05-18T06:09:21.037Z,12.90
2019-05-18T06:11:49.607Z,13.00
2019-05-18T06:14:18.050Z,13.10
2019-05-18T06:16:46.535Z,13.20
2019-05-18T06:19:15.138Z,13.30
2019-05-18T06:21:43.568Z,13.40
2019-05-18T06:24:11.981Z,13.50
2019-05-18T06:26:40.644Z,13.70
2019-05-18T06:29:09.093Z,13.90
2019-05-18T06:31:37.644Z,14.10
2019-05-18T06:34:06.372Z,14.30
2019-05-18T06:36:34.814Z,14.50
2019-05-18T06:39:04.990Z,14.60
2019-05-18T06:41:34.041Z,14.80
2019-05-18T06:44:03.012Z,14.90
2019-05-18T06:46:31.409Z,15.10
2019-05-18T06:48:59.966Z,15.20
2019-05-18T06:51:29.849Z,15.20
2019-05-18T06:53:59.807Z,15.40
2019-05-18T06:56:29.146Z,15.50
2019-05-18T06:58:59.148Z,15.60
2019-05-18T07:01:27.595Z,15.80
2019-05-18T07:03:56.236Z,15.80
2019-05-18T07:06:24.733Z,16.00
2019-05-18T07:08:53.179Z,16.00
2019-05-18T07:11:22.024Z,16.00
2019-05-18T07:13:52.163Z,16.10
2019-05-18T07:16:20.739Z,16.30
2019-05-18T07:18:52.654Z,16.40
2019-05-18T07:21:22.605Z,16.40
2019-05-18T07:23:51.507Z,16.50
2019-05-18T07:26:19.963Z,16.80
2019-05-18T07:28:48.755Z,16.80
2019-05-18T07:31:18.763Z,17.00
2019-05-18T07:33:47.189Z,17.50
2019-05-18T07:36:15.715Z,17.70
2019-05-18T07:38:44.515Z,17.50
2019-05-18T07:41:12.986Z,17.20
2019-05-18T07:43:41.405Z,17.40
2019-05-18T07:46:11.540Z,17.70
2019-05-18T07:48:40.040Z,18.10
2019-05-18T07:51:08.533Z,18.80
2019-05-18T07:53:37.342Z,19.20
2019-05-18T07:56:05.764Z,19.30
2019-05-18T07:58:34.459Z,19.30
2019-05-18T08:01:03.631Z,19.20
2019-05-18T08:03:32.148Z,19.30
2019-05-18T08:06:00.647Z,19.10
2019-05-18T08:08:29.274Z,19.00
2019-05-18T08:10:57.709Z,18.80
2019-05-18T08:13:26.261Z,18.90
2019-05-18T08:15:55.258Z,18.80
2019-05-18T08:18:23.683Z,18.70
2019-05-18T08:20:52.193Z,18.90
2019-05-18T08:23:20.971Z,19.40
2019-05-18T08:25:49.483Z,19.60
2019-05-18T08:28:18.051Z,20.00
2019-05-18T08:30:47.136Z,20.70
2019-05-18T08:33:15.556Z,21.30
2019-05-18T08:35:44.032Z,21.20
2019-05-18T08:38:12.836Z,21.10
2019-05-18T08:40:41.324Z,21.00
2019-05-18T08:43:09.999Z,21.40
2019-05-18T08:45:38.595Z,22.30
2019-05-18T08:48:07.048Z,22.40
2019-05-18T08:50:35.549Z,22.50
2019-05-18T08:53:04.595Z,22.80
2019-05-18T08:55:33.038Z,23.40
2019-05-18T08:58:01.563Z,23.00
2019-05-18T09:00:32.322Z,23.00
2019-05-18T09:03:00.811Z,22.50
2019-05-18T09:05:29.295Z,22.50
2019-05-18T09:07:57.952Z,23.10
2019-05-18T09:10:26.450Z,24.10
2019-05-18T09:12:56.406Z,23.80
2019-05-18T09:15:25.195Z,23.20
2019-05-18T09:17:53.717Z,22.40
2019-05-18T09:20:22.234Z,22.60
2019-05-18T09:22:50.667Z,23.70
2019-05-18T09:25:19.254Z,24.50
2019-05-18T09:27:47.734Z,26.10
2019-05-18T09:30:16.497Z,27.00
2019-05-18T09:32:44.954Z,27.90
2019-05-18T09:35:14.371Z,27.20
2019-05-18T09:37:42.951Z,25.20
2019-05-18T09:40:12.120Z,24.00
2019-05-18T09:42:40.537Z,22.90
2019-05-18T09:45:10.342Z,22.50
2019-05-18T09:47:38.890Z,22.60
2019-05-18T09:50:07.856Z,22.60
2019-05-18T09:52:44.970Z,22.70
2019-05-18T09:55:09.063Z,22.90
2019-05-18T09:57:37.584Z,24.10
2019-05-18T10:00:08.867Z,25.40
2019-05-18T10:02:37.359Z,26.40
2019-05-18T10:05:06.358Z,25.60
2019-05-18T10:07:34.823Z,26.40
2019-05-18T10:10:05.480Z,26.60
2019-05-18T10:12:34.220Z,27.30
2019-05-18T10:15:03.069Z,27.60
2019-05-18T10:17:31.695Z,25.60
2019-05-18T10:20:02.736Z,25.70
2019-05-18T10:22:31.155Z,25.70
2019-05-18T10:24:59.824Z,26.40
2019-05-18T10:27:28.306Z,26.50
2019-05-18T10:29:56.742Z,26.20
2019-05-18T10:32:25.455Z,26.00
2019-05-18T10:37:43.282Z,26.40
2019-05-18T10:40:12.150Z,27.40
2019-05-18T10:45:45.455Z,28.10
2019-05-18T10:48:15.185Z,28.40
2019-05-18T10:50:44.874Z,28.40
2019-05-18T10:53:27.772Z,29.10
2019-05-18T10:55:46.494Z,29.80
